CheckWX is a tool to help pilots better visualize weather data.  It is not intended as a substitute for an official pre-flight weather briefing.

00:05:59 UTC

EGSS TAF
London Stansted Airport
London, United Kingdom
TAF EGSS 052302Z 0600/0706 22015KT 9999 BKN010 BECMG 0600/0602 BKN007 TEMPO 0600/0616 23018G28KT TEMPO 0600/0613 6000 RA BKN004 PROB30 TEMPO 0600/0613 3000 RADZ PROB30 TEMPO 0611/0613 BKN001 BECMG 0613/0616 SCT008 TEMPO 0613/0620 7000 SHRA PROB30 TEMPO 0616/0619 26020G30KT 4000 +SHRA BKN014

Dec-6@
00:00 UTC

Dec-6 @ 00:00 UTC

Dec-7@
06:00 UTC

Dec-7 @ 06:00 UTC

TAF EGSS 052302Z 0600/0706 22015KT 9999 BKN010
Wind
  • 220° at 15 KTS
Cloud Levels
  • Broken at 1,000' AGL

Dec-6@
00:00 UTC

Dec-6 @ 00:00 UTC

Dec-6@
13:00 UTC

Dec-6 @ 13:00 UTC

TEMPO 0600/0613 6000 RA BKN004

Temporary

Temporary Changes expected for less than half the time period

Conditions
Rain
Cloud Levels
  • Broken at 400' AGL

Dec-6@
00:00 UTC

Dec-6 @ 00:00 UTC

Dec-6@
13:00 UTC

Dec-6 @ 13:00 UTC

PROB30 TEMPO 0600/0613 3000 RADZ

Temporary - 30% Likelihood

Temporary - 30% Likelihood during this time.

Conditions
Rain, Drizzle

Dec-6@
00:00 UTC

Dec-6 @ 00:00 UTC

Dec-6@
13:00 UTC

Dec-6 @ 13:00 UTC

BECMG 0600/0602 BKN007

Becoming

Becoming Conditions expected by Fri, Dec 6, 2019 @ 02:00 UTC

Wind
  • 220° at 15 KTS
Cloud Levels
  • Broken at 700' AGL

Dec-6@
00:00 UTC

Dec-6 @ 00:00 UTC

Dec-6@
16:00 UTC

Dec-6 @ 16:00 UTC

TEMPO 0600/0613 6000 RA BKN004

Temporary

Temporary Changes expected for less than half the time period

Wind
  • 230° at 18 KTS
  • {Gusting to 28 KTS

Dec-6@
11:00 UTC

Dec-6 @ 11:00 UTC

Dec-6@
13:00 UTC

Dec-6 @ 13:00 UTC

PROB30 TEMPO 0611/0613 BKN001

Temporary - 30% Likelihood

Temporary - 30% Likelihood during this time.

Cloud Levels
  • Broken at 100' AGL

Dec-6@
13:00 UTC

Dec-6 @ 13:00 UTC

Dec-6@
20:00 UTC

Dec-6 @ 20:00 UTC

TEMPO 0613/0620 7000 SHRA

Temporary

Temporary Changes expected for less than half the time period

Conditions
Rain

Dec-6@
13:00 UTC

Dec-6 @ 13:00 UTC

Dec-7@
06:00 UTC

Dec-7 @ 06:00 UTC

BECMG 0613/0616 SCT008

Becoming

Becoming Conditions expected by Fri, Dec 6, 2019 @ 16:00 UTC

Wind
  • 220° at 15 KTS
Cloud Levels
  • Scattered at 800' AGL

Dec-6@
16:00 UTC

Dec-6 @ 16:00 UTC

Dec-6@
19:00 UTC

Dec-6 @ 19:00 UTC

PROB30 TEMPO 0616/0619 26020G30KT 4000 +SHRA BKN014

Temporary - 30% Likelihood

Temporary - 30% Likelihood during this time.

Wind
  • 260° at 20 KTS
  • {Gusting to 30 KTS
Conditions
Heavy Rain
Cloud Levels
  • Broken at 1,400' AGL